createdAt,value
2022-11-26T00:00:02.959Z,5.88
2022-11-26T00:05:02.941Z,5.81
2022-11-26T00:10:02.765Z,5.87
2022-11-26T00:15:03.224Z,5.89
2022-11-26T00:20:03.204Z,5.95
2022-11-26T00:25:02.615Z,5.88
2022-11-26T00:30:02.804Z,5.75
2022-11-26T00:35:02.852Z,5.72
2022-11-26T00:40:02.346Z,5.81
2022-11-26T00:45:03.070Z,5.73
2022-11-26T00:50:02.855Z,5.45
2022-11-26T00:55:04.249Z,5.41
2022-11-26T01:00:02.586Z,5.25
2022-11-26T01:05:02.959Z,5.29
2022-11-26T01:10:02.764Z,5.4
2022-11-26T01:15:02.671Z,5.32
2022-11-26T01:20:02.728Z,5.36
2022-11-26T01:25:03.220Z,5.44
2022-11-26T01:30:06.659Z,5.46
2022-11-26T01:35:02.540Z,5.53
2022-11-26T01:40:02.780Z,5.59
2022-11-26T01:45:02.456Z,5.64
2022-11-26T01:50:03.364Z,5.63
2022-11-26T01:55:04.315Z,5.64
2022-11-26T02:00:02.551Z,5.66
2022-11-26T02:05:02.526Z,5.72
2022-11-26T02:10:03.437Z,5.7
2022-11-26T02:15:02.611Z,5.67
2022-11-26T02:20:02.240Z,5.62
2022-11-26T02:25:02.989Z,5.6
2022-11-26T02:30:03.072Z,5.64
2022-11-26T02:35:02.737Z,5.64
2022-11-26T02:40:02.550Z,5.65
2022-11-26T02:45:02.758Z,5.68
2022-11-26T02:50:03.098Z,5.67
2022-11-26T02:55:04.213Z,5.56
2022-11-26T03:00:03.203Z,5.38
2022-11-26T03:05:02.680Z,5.12
2022-11-26T03:10:02.454Z,5.12
2022-11-26T03:15:04.420Z,5.26
2022-11-26T03:20:02.542Z,5.25
2022-11-26T03:25:02.515Z,5.22
2022-11-26T03:30:03.133Z,5.42
2022-11-26T03:35:02.842Z,5.52
2022-11-26T03:40:02.844Z,5.58
2022-11-26T03:45:03.286Z,5.61
2022-11-26T03:50:02.788Z,5.72
2022-11-26T03:55:03.980Z,5.71
2022-11-26T04:00:02.997Z,5.75
2022-11-26T04:05:03.539Z,5.84
2022-11-26T04:10:03.196Z,5.84
2022-11-26T04:15:02.262Z,5.87
2022-11-26T04:20:03.313Z,5.88
2022-11-26T04:25:02.715Z,5.9
2022-11-26T04:30:02.891Z,5.91
2022-11-26T04:35:03.160Z,5.94
2022-11-26T04:40:02.555Z,5.94
2022-11-26T04:45:02.668Z,5.99
2022-11-26T04:50:03.015Z,6.03
2022-11-26T04:55:04.384Z,6.09
2022-11-26T05:00:02.346Z,6.11
2022-11-26T05:05:03.035Z,6.08
2022-11-26T05:10:03.304Z,6.13
2022-11-26T05:15:02.737Z,6.22
2022-11-26T05:20:02.910Z,6.29
2022-11-26T05:25:02.513Z,6.28
2022-11-26T05:30:02.832Z,6.36
2022-11-26T05:35:02.731Z,6.47
2022-11-26T05:40:02.630Z,6.38
2022-11-26T05:45:02.905Z,6.39
2022-11-26T05:50:02.735Z,6.37
2022-11-26T05:55:04.034Z,6.34
2022-11-26T06:00:02.349Z,6.3
2022-11-26T06:05:03.159Z,6.27
2022-11-26T06:10:02.386Z,6.29
2022-11-26T06:15:03.151Z,6.26
2022-11-26T06:20:02.319Z,6.24
2022-11-26T06:25:03.301Z,6.09
2022-11-26T06:30:02.784Z,6.24
2022-11-26T06:35:03.074Z,6.3
2022-11-26T06:40:02.332Z,6.31
2022-11-26T06:45:02.781Z,6.23
2022-11-26T06:50:06.454Z,6.23
2022-11-26T06:55:03.969Z,6.1
2022-11-26T07:00:02.747Z,6.06
2022-11-26T07:05:02.437Z,6.04
2022-11-26T07:10:02.245Z,6.19
2022-11-26T07:15:03.284Z,6.14
2022-11-26T07:20:03.079Z,6.16
2022-11-26T07:25:02.530Z,6.24
2022-11-26T07:30:02.984Z,6.28
2022-11-26T07:35:02.559Z,6.32
2022-11-26T07:40:03.059Z,6.32
2022-11-26T07:45:02.817Z,6.42
2022-11-26T07:50:02.838Z,6.5
2022-11-26T07:55:12.417Z,6.52
2022-11-26T08:00:03.027Z,6.54
2022-11-26T08:05:02.586Z,6.6
2022-11-26T08:10:02.631Z,6.61
2022-11-26T08:15:03.004Z,6.62
2022-11-26T08:20:02.428Z,6.64
2022-11-26T08:25:02.976Z,6.62
2022-11-26T08:30:03.200Z,6.62
2022-11-26T08:35:02.549Z,6.64
2022-11-26T08:40:02.755Z,6.65
2022-11-26T08:45:03.176Z,6.71
2022-11-26T08:50:02.910Z,6.78
2022-11-26T08:55:04.476Z,6.81
2022-11-26T09:00:02.329Z,6.86
2022-11-26T09:05:03.029Z,6.92
2022-11-26T09:10:02.659Z,7
2022-11-26T09:15:02.719Z,6.99
2022-11-26T09:20:03.154Z,6.99
2022-11-26T09:25:03.066Z,6.96
2022-11-26T09:30:02.730Z,6.88
2022-11-26T09:35:03.129Z,6.85
2022-11-26T09:40:02.508Z,6.84
2022-11-26T09:45:03.123Z,6.89
2022-11-26T09:50:02.378Z,7.02
2022-11-26T09:55:04.476Z,7.04
2022-11-26T10:00:02.726Z,7.07
2022-11-26T10:05:02.631Z,7.09
2022-11-26T10:10:03.521Z,7.18
2022-11-26T10:15:03.309Z,7.17
2022-11-26T10:20:02.840Z,7.23
2022-11-26T10:25:02.949Z,7.12
2022-11-26T10:30:03.266Z,7.08
2022-11-26T10:35:03.432Z,7.05
2022-11-26T10:40:07.026Z,7.06
2022-11-26T10:45:02.998Z,7.42
2022-11-26T10:50:14.383Z,7.44
2022-11-26T10:55:04.004Z,7.33
2022-11-26T11:00:03.437Z,7.39
2022-11-26T11:05:02.367Z,7.42
2022-11-26T11:10:03.071Z,7.45
2022-11-26T11:15:03.225Z,7.47
2022-11-26T11:20:02.585Z,7.68
2022-11-26T11:25:03.225Z,7.7
2022-11-26T11:30:02.348Z,7.63
2022-11-26T11:35:02.967Z,7.71
2022-11-26T11:40:03.070Z,8.5
2022-11-26T11:45:02.785Z,8.66
2022-11-26T11:50:03.128Z,8.15
2022-11-26T11:55:04.089Z,8.02
2022-11-26T12:00:02.941Z,7.86
2022-11-26T12:05:03.516Z,7.78
2022-11-26T12:10:02.370Z,7.78
2022-11-26T12:15:02.825Z,7.77
2022-11-26T12:20:03.178Z,7.85
2022-11-26T12:25:02.835Z,7.8
2022-11-26T12:30:03.393Z,7.8
2022-11-26T12:35:02.566Z,7.78
2022-11-26T12:40:02.649Z,7.75
2022-11-26T12:45:03.110Z,7.76
2022-11-26T12:50:02.426Z,7.77
2022-11-26T12:55:04.016Z,7.71
2022-11-26T13:00:03.129Z,7.81
2022-11-26T13:05:02.474Z,7.92
2022-11-26T13:10:02.879Z,7.85
2022-11-26T13:15:02.302Z,7.83
2022-11-26T13:20:02.703Z,8.37
2022-11-26T13:25:03.065Z,8.24
2022-11-26T13:30:02.787Z,7.89
2022-11-26T13:35:02.816Z,7.84
2022-11-26T13:40:03.200Z,7.73
2022-11-26T13:45:03.039Z,7.67
2022-11-26T13:50:03.404Z,7.62
2022-11-26T13:55:03.762Z,7.62
2022-11-26T14:00:02.881Z,7.66
2022-11-26T14:05:02.220Z,7.54
2022-11-26T14:10:02.632Z,7.27
2022-11-26T14:15:03.264Z,7.19
2022-11-26T14:20:02.709Z,7.01
2022-11-26T14:25:02.797Z,6.49
2022-11-26T14:30:03.163Z,6.25
2022-11-26T14:35:02.518Z,6.28
2022-11-26T14:40:03.240Z,6.48
2022-11-26T14:45:02.741Z,6.71
2022-11-26T14:50:02.738Z,6.55
2022-11-26T14:55:05.029Z,6.33
2022-11-26T15:00:02.479Z,6.24
2022-11-26T15:05:03.151Z,6.09
2022-11-26T15:10:02.325Z,5.93
2022-11-26T15:15:03.170Z,5.72
2022-11-26T15:20:03.389Z,5.32
2022-11-26T15:25:02.443Z,5.35
2022-11-26T15:30:02.881Z,4.72
2022-11-26T15:35:03.461Z,4.4
2022-11-26T15:40:02.552Z,4.45
2022-11-26T15:45:02.971Z,4.68
2022-11-26T15:50:02.573Z,4.75
2022-11-26T15:55:14.990Z,4.87
2022-11-26T16:00:03.089Z,4.51
2022-11-26T16:05:02.424Z,3.88
2022-11-26T16:10:02.809Z,3.42
2022-11-26T16:15:03.222Z,3.51
2022-11-26T16:20:02.868Z,3.26
2022-11-26T16:25:02.993Z,3.31
2022-11-26T16:30:02.377Z,3.3
2022-11-26T16:35:17.635Z,3.28
2022-11-26T16:40:03.325Z,3.46
2022-11-26T16:50:02.810Z,3.78
2022-11-26T16:55:04.975Z,3.76
2022-11-26T17:00:02.590Z,3.62
2022-11-26T17:05:03.201Z,3.28
2022-11-26T17:10:02.370Z,3.02
2022-11-26T17:15:02.824Z,3.27
2022-11-26T17:20:03.704Z,3.24
2022-11-26T17:25:02.544Z,3.53
2022-11-26T17:30:03.041Z,3.71
2022-11-26T17:35:02.546Z,3.6
2022-11-26T17:40:02.852Z,3.47
2022-11-26T17:45:03.387Z,3.21
2022-11-26T17:50:02.446Z,3.16
2022-11-26T17:55:04.393Z,3.18
2022-11-26T18:00:02.587Z,3.24
2022-11-26T18:05:02.956Z,3.39
2022-11-26T18:10:03.080Z,3.43
2022-11-26T18:15:02.489Z,3.6
2022-11-26T18:20:02.864Z,3.73
2022-11-26T18:25:02.225Z,3.72
2022-11-26T18:30:02.993Z,3.92
2022-11-26T18:35:03.010Z,3.71
2022-11-26T18:40:02.720Z,3.74
2022-11-26T18:45:02.822Z,3.76
2022-11-26T18:50:03.163Z,3.73
2022-11-26T18:55:04.244Z,3.8
2022-11-26T19:00:02.886Z,4.06
2022-11-26T19:05:02.687Z,4.26
2022-11-26T19:10:03.117Z,4.32
2022-11-26T19:15:02.596Z,4.33
2022-11-26T19:20:02.525Z,4.45
2022-11-26T19:25:02.554Z,4.41
2022-11-26T19:30:03.016Z,4.31
2022-11-26T19:35:05.755Z,4.23
2022-11-26T19:40:03.085Z,4.04
2022-11-26T19:45:03.100Z,3.9
2022-11-26T19:50:02.986Z,3.82
2022-11-26T19:55:09.036Z,3.79
2022-11-26T20:00:02.461Z,3.88
2022-11-26T20:05:02.383Z,3.82
2022-11-26T20:10:03.361Z,3.62
2022-11-26T20:15:03.107Z,3.76
2022-11-26T20:20:02.768Z,3.44
2022-11-26T20:25:02.447Z,3.38
2022-11-26T20:30:03.141Z,3.38
2022-11-26T20:35:03.300Z,3.49
2022-11-26T20:40:03.018Z,3.81
2022-11-26T20:45:02.511Z,3.88
2022-11-26T20:50:02.744Z,3.71
2022-11-26T20:55:05.189Z,3.66
2022-11-26T21:00:02.503Z,3.61
2022-11-26T21:05:02.420Z,3.69
2022-11-26T21:10:02.410Z,3.76
2022-11-26T21:15:03.414Z,3.95
2022-11-26T21:20:03.393Z,4
2022-11-26T21:25:02.945Z,4.03
2022-11-26T21:30:02.513Z,3.89
2022-11-26T21:35:02.471Z,3.81
2022-11-26T21:40:03.504Z,3.78
2022-11-26T21:45:03.341Z,3.82
2022-11-26T21:50:02.840Z,3.79
2022-11-26T21:55:04.211Z,3.75
2022-11-26T22:00:02.973Z,3.75
2022-11-26T22:05:03.457Z,3.71
2022-11-26T22:10:03.494Z,3.67
2022-11-26T22:15:02.955Z,3.71
2022-11-26T22:20:02.908Z,3.68
2022-11-26T22:25:02.633Z,3.64
2022-11-26T22:30:02.657Z,3.64
2022-11-26T22:35:02.299Z,3.65
2022-11-26T22:40:03.050Z,3.71
2022-11-26T22:45:02.819Z,3.64
2022-11-26T22:50:02.967Z,3.57
2022-11-26T22:55:03.566Z,3.75
2022-11-26T23:00:02.706Z,3.78
2022-11-26T23:05:02.785Z,3.65
2022-11-26T23:10:02.532Z,3.4
2022-11-26T23:15:03.018Z,3.46
2022-11-26T23:20:02.946Z,3.4
2022-11-26T23:25:02.750Z,3.07
2022-11-26T23:30:02.397Z,2.71
2022-11-26T23:35:02.549Z,2.49
2022-11-26T23:40:03.008Z,2.44
2022-11-26T23:45:02.759Z,2.6
2022-11-26T23:50:02.768Z,2.56
2022-11-26T23:55:04.024Z,2.27
